createdAt,value
2019-05-13T00:01:53.803Z,4.80
2019-05-13T00:04:20.504Z,4.70
2019-05-13T00:06:54.021Z,4.60
2019-05-13T00:09:16.909Z,4.60
2019-05-13T00:11:44.214Z,4.60
2019-05-13T00:14:13.435Z,4.50
2019-05-13T00:16:41.175Z,4.40
2019-05-13T00:19:08.418Z,4.30
2019-05-13T00:21:35.728Z,4.20
2019-05-13T00:24:04.203Z,4.10
2019-05-13T00:26:33.745Z,4.00
2019-05-13T00:29:00.863Z,3.90
2019-05-13T00:31:28.516Z,3.90
2019-05-13T00:33:55.770Z,3.80
2019-05-13T00:36:24.280Z,3.70
2019-05-13T00:38:53.493Z,3.70
2019-05-13T00:41:21.141Z,3.70
2019-05-13T00:43:48.381Z,3.60
2019-05-13T00:46:15.720Z,3.60
2019-05-13T00:48:43.971Z,3.50
2019-05-13T00:51:13.946Z,3.50
2019-05-13T00:53:40.880Z,3.40
2019-05-13T00:56:08.208Z,3.40
2019-05-13T00:58:35.459Z,3.40
2019-05-13T01:01:03.588Z,3.30
2019-05-13T01:03:31.096Z,3.20
2019-05-13T01:05:58.346Z,3.30
2019-05-13T01:08:25.590Z,3.40
2019-05-13T01:10:53.741Z,3.50
2019-05-13T01:13:21.033Z,3.40
2019-05-13T01:15:48.697Z,3.30
2019-05-13T01:18:15.940Z,3.30
2019-05-13T01:20:43.908Z,3.30
2019-05-13T01:23:13.894Z,3.30
2019-05-13T01:25:40.689Z,3.40
2019-05-13T01:28:07.952Z,3.50
2019-05-13T01:30:35.280Z,3.30
2019-05-13T01:33:04.306Z,3.10
2019-05-13T01:35:34.369Z,2.90
2019-05-13T01:38:01.404Z,2.80
2019-05-13T01:40:28.981Z,3.00
2019-05-13T01:42:56.283Z,3.10
2019-05-13T01:45:24.151Z,3.30
2019-05-13T01:47:53.805Z,3.50
2019-05-13T01:50:20.950Z,3.50
2019-05-13T01:52:48.232Z,3.60
2019-05-13T01:55:15.765Z,3.70
2019-05-13T01:57:44.352Z,3.80
2019-05-13T02:00:14.081Z,3.80
2019-05-13T02:02:44.206Z,3.80
2019-05-13T02:05:10.794Z,3.60
2019-05-13T02:07:38.040Z,3.50
2019-05-13T02:10:06.800Z,3.40
2019-05-13T02:12:34.150Z,3.40
2019-05-13T02:15:04.223Z,3.60
2019-05-13T02:17:30.561Z,3.60
2019-05-13T02:19:58.332Z,3.70
2019-05-13T02:22:25.888Z,3.80
2019-05-13T02:24:53.599Z,3.90
2019-05-13T02:27:21.331Z,4.00
2019-05-13T02:29:48.844Z,4.00
2019-05-13T02:32:16.260Z,4.00
2019-05-13T02:34:44.078Z,4.10
2019-05-13T02:37:12.873Z,4.20
2019-05-13T02:39:42.802Z,4.30
2019-05-13T02:42:12.941Z,4.30
2019-05-13T02:44:39.099Z,4.40
2019-05-13T02:47:06.647Z,4.50
2019-05-13T02:49:33.972Z,4.60
2019-05-13T02:52:02.825Z,4.70
2019-05-13T02:54:34.145Z,4.80
2019-05-13T02:57:03.279Z,4.80
2019-05-13T02:59:29.013Z,4.90
2019-05-13T03:01:56.608Z,4.80
2019-05-13T03:04:23.928Z,4.70
2019-05-13T03:06:52.124Z,4.90
2019-05-13T03:09:22.709Z,4.90
2019-05-13T03:11:48.945Z,4.90
2019-05-13T03:14:16.494Z,4.90
2019-05-13T03:16:52.806Z,4.90
2019-05-13T03:19:22.446Z,4.90
2019-05-13T03:21:52.119Z,4.80
2019-05-13T03:24:18.543Z,4.70
2019-05-13T03:26:45.913Z,4.70
2019-05-13T03:29:13.407Z,4.70
2019-05-13T03:31:46.174Z,4.50
2019-05-13T03:34:14.965Z,4.50
2019-05-13T03:36:44.972Z,4.60
2019-05-13T03:39:14.510Z,4.60
2019-05-13T03:41:38.553Z,4.70
2019-05-13T03:44:13.092Z,4.70
2019-05-13T03:46:42.357Z,4.70
2019-05-13T03:49:13.818Z,4.60
2019-05-13T03:51:42.687Z,4.60
2019-05-13T03:54:09.141Z,4.70
2019-05-13T03:56:36.722Z,4.60
2019-05-13T03:59:04.074Z,4.60
2019-05-13T04:01:32.576Z,4.60
2019-05-13T04:04:03.034Z,4.60
2019-05-13T04:06:32.091Z,4.60
2019-05-13T04:09:17.208Z,4.60
2019-05-13T04:11:27.540Z,4.50
2019-05-13T04:13:54.892Z,4.40
2019-05-13T04:16:23.714Z,4.20
2019-05-13T04:18:53.666Z,4.30
2019-05-13T04:21:22.810Z,4.30
2019-05-13T04:23:53.079Z,4.30
2019-05-13T04:26:23.580Z,4.30
2019-05-13T04:28:52.582Z,4.50
2019-05-13T04:31:18.828Z,4.70
2019-05-13T04:33:46.316Z,4.70
2019-05-13T04:36:14.123Z,4.90
2019-05-13T04:38:44.208Z,4.90
2019-05-13T04:41:12.018Z,5.10
2019-05-13T04:43:42.930Z,5.10
2019-05-13T04:46:08.970Z,5.20
2019-05-13T04:48:39.394Z,5.30
2019-05-13T04:51:06.017Z,5.40
2019-05-13T04:53:33.686Z,5.50
2019-05-13T04:56:03.098Z,5.50
2019-05-13T04:58:32.240Z,5.70
2019-05-13T05:01:28.241Z,5.70
2019-05-13T05:04:03.604Z,5.80
2019-05-13T05:06:52.709Z,5.90
2019-05-13T05:10:16.769Z,6.30
2019-05-13T05:13:05.974Z,6.80
2019-05-13T05:16:04.100Z,7.20
2019-05-13T05:19:03.642Z,7.40
2019-05-13T05:21:43.154Z,7.70
2019-05-13T05:24:37.070Z,8.00
2019-05-13T05:27:52.547Z,7.90
2019-05-13T05:30:56.181Z,7.70
2019-05-13T05:34:12.227Z,7.50
2019-05-13T05:37:01.256Z,7.50
2019-05-13T05:39:28.033Z,8.00
2019-05-13T05:41:56.618Z,8.60
2019-05-13T05:44:25.537Z,9.20
2019-05-13T05:46:54.601Z,9.60
2019-05-13T05:49:24.248Z,9.60
2019-05-13T05:52:03.745Z,9.70
2019-05-13T05:54:33.102Z,9.90
2019-05-13T05:57:02.403Z,10.10
2019-05-13T05:59:32.037Z,10.10
2019-05-13T06:02:02.032Z,9.90
2019-05-13T06:04:28.712Z,9.90
2019-05-13T06:06:56.316Z,9.60
2019-05-13T06:09:23.563Z,9.70
2019-05-13T06:11:52.193Z,9.50
2019-05-13T06:14:21.979Z,9.50
2019-05-13T06:16:51.690Z,9.40
2019-05-13T06:19:19.374Z,10.50
2019-05-13T06:21:47.805Z,10.70
2019-05-13T06:24:15.517Z,10.80
2019-05-13T06:26:43.032Z,11.40
2019-05-13T06:29:11.678Z,11.30
2019-05-13T06:31:41.737Z,10.60
2019-05-13T06:34:08.548Z,9.90
2019-05-13T06:36:35.932Z,9.50
2019-05-13T06:39:05.777Z,9.40
2019-05-13T06:41:33.061Z,9.50
2019-05-13T06:44:02.225Z,9.40
2019-05-13T06:46:32.163Z,9.40
2019-05-13T06:48:58.757Z,9.40
2019-05-13T06:51:26.007Z,9.60
2019-05-13T06:53:53.553Z,9.50
2019-05-13T06:56:21.749Z,9.20
2019-05-13T06:58:51.823Z,8.80
2019-05-13T07:01:18.852Z,8.70
2019-05-13T07:03:46.529Z,8.80
2019-05-13T07:06:13.882Z,8.60
2019-05-13T07:08:41.892Z,8.80
2019-05-13T07:11:20.296Z,9.00
2019-05-13T07:13:38.510Z,9.10
2019-05-13T07:16:06.117Z,9.40
2019-05-13T07:18:33.669Z,9.50
2019-05-13T07:21:02.150Z,9.80
2019-05-13T07:23:31.883Z,9.80
2019-05-13T07:26:01.528Z,9.90
2019-05-13T07:28:28.001Z,9.90
2019-05-13T07:30:55.531Z,10.00
2019-05-13T07:33:22.962Z,10.00
2019-05-13T07:35:58.294Z,10.20
2019-05-13T07:38:23.869Z,10.30
2019-05-13T07:41:01.454Z,10.50
2019-05-13T07:43:28.541Z,10.70
2019-05-13T07:45:55.849Z,10.70
2019-05-13T07:48:27.609Z,10.60
2019-05-13T07:50:59.846Z,10.40
2019-05-13T07:53:22.296Z,10.40
2019-05-13T07:55:52.312Z,10.50
2019-05-13T07:58:19.000Z,10.90
2019-05-13T08:00:46.627Z,11.20
2019-05-13T08:03:13.989Z,11.40
2019-05-13T08:05:41.792Z,11.80
2019-05-13T08:08:11.730Z,11.60
2019-05-13T08:10:38.761Z,12.00
2019-05-13T08:13:06.355Z,12.30
2019-05-13T08:15:33.581Z,12.70
2019-05-13T08:18:02.115Z,12.40
2019-05-13T08:20:29.459Z,12.50
2019-05-13T08:22:56.709Z,12.20
2019-05-13T08:25:23.946Z,12.40
2019-05-13T08:27:51.586Z,12.70
2019-05-13T08:30:18.863Z,12.70
2019-05-13T08:32:46.097Z,13.20
2019-05-13T08:35:13.921Z,13.40
2019-05-13T08:37:41.479Z,13.50
2019-05-13T08:40:11.882Z,13.60
2019-05-13T08:42:38.773Z,13.50
2019-05-13T08:45:06.760Z,13.30
2019-05-13T08:47:34.132Z,13.50
2019-05-13T08:50:04.190Z,13.10
2019-05-13T08:52:31.326Z,12.80
2019-05-13T08:55:01.336Z,13.10
2019-05-13T08:57:28.394Z,13.60
2019-05-13T08:59:55.706Z,13.70
2019-05-13T09:02:22.966Z,13.70
2019-05-13T09:04:51.423Z,13.50
2019-05-13T09:07:23.915Z,13.50
2019-05-13T09:09:51.038Z,13.50
2019-05-13T09:12:29.648Z,13.60
2019-05-13T09:14:46.920Z,13.40
2019-05-13T09:17:14.205Z,13.60
2019-05-13T09:19:41.676Z,13.30
2019-05-13T09:22:12.163Z,13.30
2019-05-13T09:24:38.409Z,13.60
2019-05-13T09:27:05.921Z,13.70
2019-05-13T09:29:33.176Z,13.90
2019-05-13T09:32:03.905Z,13.40
2019-05-13T09:34:29.598Z,13.80
2019-05-13T09:36:57.098Z,13.90
2019-05-13T09:39:24.401Z,13.50
2019-05-13T09:41:52.257Z,13.30
2019-05-13T09:44:21.815Z,13.20
2019-05-13T09:46:51.490Z,13.50
2019-05-13T09:49:20.084Z,13.90
2019-05-13T09:51:47.808Z,14.00
2019-05-13T09:54:15.407Z,14.00
2019-05-13T09:56:42.755Z,14.20
2019-05-13T09:59:11.732Z,14.30
2019-05-13T10:01:42.268Z,14.40
2019-05-13T10:04:11.638Z,14.20
2019-05-13T10:06:38.507Z,14.10
2019-05-13T10:09:06.571Z,14.50
2019-05-13T10:11:33.928Z,14.20
2019-05-13T10:14:11.957Z,14.30
2019-05-13T10:16:42.114Z,14.50
2019-05-13T10:19:12.865Z,14.70
2019-05-13T10:21:42.051Z,15.00
2019-05-13T10:24:12.346Z,15.20
2019-05-13T10:26:39.235Z,15.10
2019-05-13T10:29:06.678Z,15.50
2019-05-13T10:31:34.147Z,16.40
2019-05-13T10:34:02.243Z,16.30
2019-05-13T10:36:30.059Z,16.00
2019-05-13T10:38:57.430Z,15.60
2019-05-13T10:41:25.912Z,15.40
2019-05-13T10:43:53.299Z,15.60
2019-05-13T10:46:22.076Z,17.00
2019-05-13T10:48:52.423Z,17.40
2019-05-13T10:51:19.030Z,17.70
2019-05-13T10:53:46.381Z,18.20
2019-05-13T10:56:13.681Z,17.90
2019-05-13T10:58:42.621Z,18.50
2019-05-13T11:01:11.645Z,18.10
2019-05-13T11:03:39.165Z,18.00
2019-05-13T11:06:06.481Z,17.90
2019-05-13T11:08:34.065Z,18.70
2019-05-13T11:11:02.177Z,19.90
2019-05-13T11:13:49.645Z,19.30
2019-05-13T11:15:58.952Z,19.50
2019-05-13T11:18:26.398Z,19.20
2019-05-13T11:20:53.918Z,20.40
2019-05-13T11:23:23.172Z,20.50
2019-05-13T11:25:52.352Z,21.00
2019-05-13T11:28:19.485Z,19.80
2019-05-13T11:30:46.872Z,20.40
2019-05-13T11:33:14.826Z,20.70
2019-05-13T11:35:42.245Z,20.80
2019-05-13T11:38:12.050Z,21.40
2019-05-13T11:40:38.735Z,21.70
2019-05-13T11:43:06.373Z,22.50
2019-05-13T11:45:33.797Z,20.90
2019-05-13T11:48:02.338Z,21.80
2019-05-13T11:50:30.113Z,21.70
2019-05-13T11:52:57.518Z,21.50
2019-05-13T11:55:25.189Z,20.60
2019-05-13T11:57:53.309Z,20.90
2019-05-13T12:00:53.088Z,20.80
2019-05-13T12:03:22.701Z,21.30
2019-05-13T12:05:49.200Z,21.50
2019-05-13T12:08:16.713Z,20.00
2019-05-13T12:10:44.169Z,20.10
2019-05-13T12:13:12.504Z,20.20
2019-05-13T12:15:48.754Z,20.10
2019-05-13T12:18:09.157Z,20.90
2019-05-13T12:20:36.807Z,21.40
2019-05-13T12:23:04.192Z,21.30
2019-05-13T12:25:33.499Z,20.40
2019-05-13T12:28:03.329Z,20.00
2019-05-13T12:30:33.333Z,20.50
2019-05-13T12:32:59.440Z,21.20
2019-05-13T12:35:26.841Z,21.20
2019-05-13T12:37:54.111Z,21.50
2019-05-13T12:40:23.082Z,21.20
2019-05-13T12:42:53.966Z,20.90
2019-05-13T12:45:22.534Z,21.30
2019-05-13T12:47:49.264Z,21.60
2019-05-13T12:50:18.429Z,21.30
2019-05-13T12:52:45.710Z,19.90
2019-05-13T12:55:14.089Z,19.40
2019-05-13T12:57:42.208Z,19.70
2019-05-13T13:00:12.472Z,20.50
2019-05-13T13:02:39.054Z,20.20
2019-05-13T13:05:13.313Z,19.60
2019-05-13T13:07:41.273Z,19.30
2019-05-13T13:10:05.242Z,19.20
2019-05-13T13:12:36.026Z,19.10
2019-05-13T13:15:20.343Z,18.70
2019-05-13T13:17:31.365Z,19.00
2019-05-13T13:20:06.163Z,19.10
2019-05-13T13:22:28.071Z,18.40
2019-05-13T13:24:57.191Z,17.40
2019-05-13T13:27:56.807Z,17.50
2019-05-13T13:30:02.785Z,17.30
2019-05-13T13:32:24.678Z,17.50
2019-05-13T13:34:54.628Z,17.30
2019-05-13T13:37:22.542Z,17.20
2019-05-13T13:39:54.695Z,17.60
2019-05-13T13:42:19.620Z,17.30
2019-05-13T13:44:46.981Z,17.10
2019-05-13T13:47:15.308Z,17.10
2019-05-13T13:49:43.897Z,17.40
2019-05-13T13:52:15.942Z,17.30
2019-05-13T13:54:44.256Z,16.80
2019-05-13T13:57:13.503Z,17.00
2019-05-13T14:00:11.813Z,16.50
2019-05-13T14:02:08.611Z,16.30
2019-05-13T14:04:35.977Z,16.00
2019-05-13T14:09:32.493Z,16.30
2019-05-13T14:12:01.859Z,16.30
2019-05-13T14:14:28.954Z,16.50
2019-05-13T14:16:56.185Z,16.40
2019-05-13T14:19:24.097Z,16.90
2019-05-13T14:21:52.462Z,17.20
2019-05-13T14:24:21.615Z,17.00
2019-05-13T14:26:49.058Z,16.70
2019-05-13T14:29:16.730Z,16.00
2019-05-13T14:31:44.496Z,16.20
2019-05-13T14:34:12.687Z,16.10
2019-05-13T14:36:40.362Z,16.30
2019-05-13T14:39:07.725Z,16.30
2019-05-13T14:41:35.440Z,16.40
2019-05-13T14:44:03.686Z,16.40
2019-05-13T14:46:55.422Z,15.90
2019-05-13T14:49:01.672Z,16.10
2019-05-13T14:51:32.258Z,15.90
2019-05-13T14:54:02.571Z,16.20
2019-05-13T14:56:32.311Z,16.20
2019-05-13T14:59:00.254Z,16.20
2019-05-13T15:01:29.093Z,15.80
2019-05-13T15:03:56.496Z,15.70
2019-05-13T15:06:24.585Z,15.60
2019-05-13T15:08:52.801Z,15.90
2019-05-13T15:11:28.470Z,15.70
2019-05-13T15:13:56.461Z,15.60
2019-05-13T15:16:24.880Z,16.00
2019-05-13T15:18:52.642Z,16.20
2019-05-13T15:21:21.355Z,15.70
2019-05-13T15:23:51.546Z,15.90
2019-05-13T15:26:18.501Z,16.10
2019-05-13T15:28:45.842Z,15.90
2019-05-13T15:31:13.422Z,15.80
2019-05-13T15:33:41.648Z,15.60
2019-05-13T15:36:12.028Z,15.50
2019-05-13T15:38:41.398Z,15.60
2019-05-13T15:41:12.044Z,15.80
2019-05-13T15:43:38.322Z,15.70
2019-05-13T15:46:05.611Z,15.50
2019-05-13T15:48:33.846Z,15.00
2019-05-13T15:51:02.305Z,14.80
2019-05-13T15:53:32.080Z,14.80
2019-05-13T15:56:02.567Z,14.90
2019-05-13T15:58:44.482Z,14.80
2019-05-13T16:01:12.548Z,14.70
2019-05-13T16:03:41.582Z,14.60
2019-05-13T16:06:10.014Z,14.50
2019-05-13T16:08:37.882Z,14.60
2019-05-13T16:11:06.178Z,14.60
2019-05-13T16:13:34.151Z,14.60
2019-05-13T16:16:03.058Z,14.60
2019-05-13T16:18:31.795Z,14.60
2019-05-13T16:21:04.467Z,14.60
2019-05-13T16:23:32.754Z,14.60
2019-05-13T16:26:03.415Z,14.80
2019-05-13T16:28:32.804Z,14.80
2019-05-13T16:31:02.442Z,14.50
2019-05-13T16:33:31.455Z,14.50
2019-05-13T16:36:02.271Z,14.30
2019-05-13T16:38:29.292Z,14.30
2019-05-13T16:40:57.680Z,14.30
2019-05-13T16:43:25.875Z,14.20
2019-05-13T16:46:02.316Z,14.20
2019-05-13T16:48:32.290Z,14.20
2019-05-13T16:51:00.538Z,14.20
2019-05-13T16:53:28.378Z,14.30
2019-05-13T16:55:56.539Z,14.30
2019-05-13T16:58:25.051Z,14.30
2019-05-13T17:00:55.900Z,14.30
2019-05-13T17:03:22.735Z,14.10
2019-05-13T17:05:51.371Z,14.00
2019-05-13T17:08:21.406Z,14.00
2019-05-13T17:10:51.419Z,14.00
2019-05-13T17:13:21.990Z,14.10
2019-05-13T17:15:52.166Z,14.10
2019-05-13T17:18:21.947Z,14.00
2019-05-13T17:20:49.486Z,14.00
2019-05-13T17:23:17.062Z,14.00
2019-05-13T17:25:44.413Z,13.90
2019-05-13T17:28:13.433Z,14.00
2019-05-13T17:30:41.588Z,13.90
2019-05-13T17:33:08.859Z,13.90
2019-05-13T17:35:36.111Z,13.60
2019-05-13T17:38:03.368Z,13.60
2019-05-13T17:40:31.504Z,13.70
2019-05-13T17:42:58.877Z,13.60
2019-05-13T17:45:26.569Z,13.50
2019-05-13T17:47:54.506Z,13.50
2019-05-13T17:50:22.266Z,13.60
2019-05-13T17:52:51.355Z,13.60
2019-05-13T17:55:19.166Z,13.40
2019-05-13T17:57:46.769Z,13.30
2019-05-13T18:00:14.225Z,13.10
2019-05-13T18:02:42.105Z,13.10
2019-05-13T18:05:11.873Z,13.00
2019-05-13T18:07:39.308Z,12.80
2019-05-13T18:10:06.703Z,12.90
2019-05-13T18:12:34.012Z,13.00
2019-05-13T18:15:02.512Z,12.80
2019-05-13T18:17:31.211Z,12.70
2019-05-13T18:19:58.604Z,12.70
2019-05-13T18:22:26.030Z,12.60
2019-05-13T18:24:53.840Z,12.50
2019-05-13T18:27:22.136Z,12.50
2019-05-13T18:29:51.303Z,12.40
2019-05-13T18:32:20.903Z,12.20
2019-05-13T18:34:48.274Z,12.20
2019-05-13T18:37:15.941Z,12.00
2019-05-13T18:39:43.769Z,11.90
2019-05-13T18:42:11.690Z,11.90
2019-05-13T18:44:39.066Z,11.90
2019-05-13T18:47:06.713Z,11.90
2019-05-13T18:49:34.332Z,11.80
2019-05-13T18:52:01.621Z,11.70
2019-05-13T18:54:31.379Z,11.70
2019-05-13T18:56:58.702Z,11.60
2019-05-13T18:59:25.933Z,11.70
2019-05-13T19:01:53.384Z,11.60
2019-05-13T19:04:21.795Z,11.40
2019-05-13T19:06:51.481Z,11.30
2019-05-13T19:09:18.393Z,11.20
2019-05-13T19:11:45.613Z,11.20
2019-05-13T19:14:12.849Z,11.10
2019-05-13T19:16:42.160Z,11.00
2019-05-13T19:19:13.401Z,11.10
2019-05-13T19:21:39.038Z,11.00
2019-05-13T19:24:06.572Z,10.90
2019-05-13T19:26:34.122Z,10.80
2019-05-13T19:29:02.112Z,10.80
2019-05-13T19:31:29.906Z,10.90
2019-05-13T19:33:57.157Z,10.90
2019-05-13T19:36:24.519Z,10.80
2019-05-13T19:38:51.841Z,10.70
2019-05-13T19:41:19.461Z,10.60
2019-05-13T19:43:46.987Z,10.50
2019-05-13T19:46:14.854Z,10.40
2019-05-13T19:48:42.186Z,10.30
2019-05-13T19:51:09.548Z,10.30
2019-05-13T19:53:36.982Z,10.30
2019-05-13T19:56:04.538Z,10.20
2019-05-13T19:58:32.397Z,10.40
2019-05-13T20:00:59.846Z,10.40
2019-05-13T20:03:27.386Z,10.30
2019-05-13T20:05:54.865Z,10.20
2019-05-13T20:08:22.224Z,10.20
2019-05-13T20:10:51.512Z,10.10
2019-05-13T20:13:18.890Z,10.10
2019-05-13T20:15:46.162Z,10.00
2019-05-13T20:18:13.478Z,10.00
2019-05-13T20:20:41.289Z,10.00
2019-05-13T20:23:08.665Z,9.90
2019-05-13T20:25:36.172Z,9.80
2019-05-13T20:28:03.704Z,9.70
2019-05-13T20:30:31.345Z,9.60
2019-05-13T20:32:58.968Z,9.60
2019-05-13T20:35:26.411Z,9.40
2019-05-13T20:37:54.770Z,9.30
2019-05-13T20:40:22.446Z,9.30
2019-05-13T20:42:51.562Z,9.20
2019-05-13T20:45:18.784Z,9.20
2019-05-13T20:47:46.041Z,9.10
2019-05-13T20:50:13.481Z,9.00
2019-05-13T20:52:42.081Z,8.80
2019-05-13T20:55:09.568Z,8.70
2019-05-13T20:57:37.200Z,8.80
2019-05-13T21:00:04.754Z,8.70
2019-05-13T21:02:32.076Z,8.70
2019-05-13T21:05:01.264Z,8.60
2019-05-13T21:07:28.828Z,8.50
2019-05-13T21:09:56.727Z,8.40
2019-05-13T21:12:24.303Z,8.40
2019-05-13T21:14:51.821Z,8.30
2019-05-13T21:17:21.431Z,8.20
2019-05-13T21:19:48.592Z,8.30
2019-05-13T21:22:16.066Z,8.30
2019-05-13T21:24:43.604Z,8.20
2019-05-13T21:27:11.923Z,8.20
2019-05-13T21:29:41.328Z,8.10
2019-05-13T21:32:08.612Z,8.00
2019-05-13T21:34:36.130Z,8.00
2019-05-13T21:37:03.506Z,7.90
2019-05-13T21:39:32.009Z,8.00
2019-05-13T21:41:59.509Z,8.00
2019-05-13T21:44:27.017Z,7.90
2019-05-13T21:46:54.497Z,7.60
2019-05-13T21:49:22.191Z,7.70
2019-05-13T21:51:49.489Z,7.60
2019-05-13T21:54:16.744Z,7.70
2019-05-13T21:56:44.156Z,7.90
2019-05-13T21:59:11.696Z,7.90
2019-05-13T22:01:42.066Z,8.00
2019-05-13T22:04:08.334Z,8.00
2019-05-13T22:06:38.377Z,8.00
2019-05-13T22:09:07.084Z,8.10
2019-05-13T22:11:35.167Z,8.20
2019-05-13T22:14:02.589Z,8.30
2019-05-13T22:16:31.860Z,8.20
2019-05-13T22:19:01.441Z,8.10
2019-05-13T22:21:28.508Z,8.20
2019-05-13T22:23:55.870Z,8.20
2019-05-13T22:26:23.029Z,8.30
2019-05-13T22:28:51.268Z,8.30
2019-05-13T22:31:18.858Z,8.40
2019-05-13T22:33:46.491Z,8.30
2019-05-13T22:36:13.740Z,8.30
2019-05-13T22:38:42.624Z,8.30
2019-05-13T22:41:11.646Z,8.20
2019-05-13T22:43:52.453Z,8.20
2019-05-13T22:46:08.181Z,8.40
2019-05-13T22:48:35.749Z,8.40
2019-05-13T22:51:03.341Z,8.40
2019-05-13T22:53:31.839Z,8.40
2019-05-13T22:55:59.436Z,8.40
2019-05-13T22:58:26.713Z,8.40
2019-05-13T23:00:54.262Z,8.40
2019-05-13T23:03:21.528Z,8.40
2019-05-13T23:05:48.808Z,8.40
2019-05-13T23:08:16.416Z,8.30
2019-05-13T23:10:43.967Z,8.40
2019-05-13T23:13:11.389Z,8.40
2019-05-13T23:15:38.645Z,8.60
2019-05-13T23:18:06.189Z,8.60
2019-05-13T23:20:33.421Z,8.50
2019-05-13T23:23:01.314Z,8.50
2019-05-13T23:25:28.741Z,8.40
2019-05-13T23:27:56.581Z,8.40
2019-05-13T23:30:24.165Z,8.40
2019-05-13T23:32:51.878Z,8.40
2019-05-13T23:35:21.534Z,8.20
2019-05-13T23:37:50.882Z,8.20
2019-05-13T23:40:17.929Z,8.10
2019-05-13T23:42:45.238Z,8.00
2019-05-13T23:45:12.560Z,7.90
2019-05-13T23:47:41.741Z,8.00
2019-05-13T23:50:09.328Z,7.90
2019-05-13T23:52:37.226Z,8.00
2019-05-13T23:55:05.974Z,8.00
2019-05-13T23:57:33.434Z,7.90
